createdAt,value
2017-07-15T19:04:37.081Z,99.90
2017-07-15T19:07:04.620Z,90.70
2017-07-15T19:09:32.192Z,91.90
2017-07-15T19:11:59.752Z,91.60
2017-07-15T19:14:27.306Z,90.30
2017-07-15T19:16:54.840Z,90.10
2017-07-15T19:19:23.163Z,90.30
2017-07-15T19:21:50.700Z,90.30
2017-07-15T19:24:18.266Z,91.30
2017-07-15T19:26:45.800Z,92.40
2017-07-15T19:29:14.119Z,93.20
2017-07-15T19:31:41.659Z,93.20
2017-07-15T19:34:09.222Z,92.50
2017-07-15T19:36:36.756Z,93.00
2017-07-15T19:39:05.215Z,93.80
2017-07-15T19:41:32.752Z,93.80
2017-07-15T19:44:00.282Z,92.70
2017-07-15T19:46:27.992Z,92.20
2017-07-15T19:48:55.523Z,92.10
2017-07-15T19:51:23.082Z,92.40
2017-07-15T19:53:50.620Z,92.40
2017-07-15T19:56:18.176Z,94.40
2017-07-15T19:58:45.716Z,95.60
2017-07-15T20:01:14.034Z,94.10
2017-07-15T20:03:41.560Z,94.10
2017-07-15T20:06:09.119Z,94.10
2017-07-15T20:08:37.412Z,94.00
2017-07-15T20:11:04.963Z,93.90
2017-07-15T20:13:32.504Z,95.30
2017-07-15T20:16:00.819Z,95.30
2017-07-15T20:18:28.339Z,95.20
2017-07-15T20:20:56.666Z,95.70
2017-07-15T20:23:24.195Z,95.40
2017-07-15T20:25:51.739Z,95.00
2017-07-15T20:28:20.035Z,94.70
2017-07-15T20:30:47.586Z,94.70
2017-07-15T20:33:15.883Z,96.10
2017-07-15T20:35:49.028Z,96.00
2017-07-15T20:38:16.551Z,95.60
2017-07-15T20:40:44.111Z,96.30
2017-07-15T20:43:11.651Z,96.60
2017-07-15T20:45:39.217Z,97.10
2017-07-15T20:48:06.750Z,96.90
2017-07-15T20:50:35.043Z,96.20
2017-07-15T20:53:08.227Z,96.20
2017-07-15T20:55:35.759Z,96.60
2017-07-15T20:58:03.311Z,95.70
2017-07-15T21:00:30.867Z,95.20
2017-07-15T21:02:58.423Z,95.90
2017-07-15T21:05:25.959Z,96.20
2017-07-15T21:07:53.510Z,97.50
2017-07-15T21:10:21.035Z,98.30
2017-07-15T21:12:49.353Z,98.50
2017-07-15T21:15:16.884Z,98.50
2017-07-15T21:17:44.445Z,99.30
2017-07-15T21:20:11.976Z,99.70
2017-07-15T21:22:40.290Z,99.30
2017-07-15T21:25:07.815Z,99.20
2017-07-15T21:27:35.366Z,99.90
2017-07-15T21:30:02.891Z,99.90
2017-07-15T21:32:30.444Z,99.90
2017-07-15T21:34:57.970Z,99.90
2017-07-15T21:37:25.519Z,99.90
2017-07-15T21:39:53.815Z,99.90
2017-07-15T21:42:21.372Z,99.90
2017-07-15T21:44:48.904Z,99.90
2017-07-15T21:47:17.203Z,99.90
2017-07-15T21:49:44.761Z,99.90
2017-07-15T21:52:12.287Z,99.90
2017-07-15T21:54:39.839Z,99.90
2017-07-15T21:57:07.363Z,99.90
2017-07-15T21:59:34.917Z,99.90
2017-07-15T22:02:02.454Z,99.90
2017-07-15T22:04:30.771Z,99.90
2017-07-15T22:06:58.300Z,99.90
2017-07-15T22:09:25.854Z,99.90
2017-07-15T22:11:53.375Z,99.90
2017-07-15T22:14:20.932Z,99.90
2017-07-15T22:16:48.469Z,99.90
2017-07-15T22:19:16.099Z,99.90
2017-07-15T22:21:43.632Z,99.90
2017-07-15T22:24:11.191Z,99.90
2017-07-15T22:26:38.720Z,99.90
2017-07-15T22:29:06.291Z,99.90
2017-07-15T22:51:10.707Z,99.90
2017-07-15T22:53:38.240Z,99.90
2017-07-15T22:56:05.795Z,99.90
2017-07-15T22:58:34.095Z,99.90
2017-07-15T23:01:01.651Z,99.90
2017-07-15T23:03:29.180Z,99.90
2017-07-15T23:05:56.740Z,99.90
2017-07-15T23:08:25.039Z,99.90
2017-07-15T23:10:52.588Z,99.90
2017-07-15T23:13:20.887Z,99.90
2017-07-15T23:15:48.452Z,99.90
2017-07-15T23:18:15.981Z,99.90
2017-07-15T23:20:44.303Z,99.90
2017-07-15T23:23:11.835Z,99.90
2017-07-15T23:25:39.382Z,99.90
2017-07-15T23:28:07.676Z,99.90
2017-07-15T23:30:35.231Z,99.90
2017-07-15T23:33:02.767Z,99.90
2017-07-15T23:35:31.095Z,99.90
2017-07-15T23:37:58.631Z,99.90
2017-07-15T23:40:26.192Z,99.90
2017-07-15T23:42:53.722Z,99.90
2017-07-15T23:45:22.039Z,99.90
2017-07-15T23:47:49.572Z,99.90
2017-07-15T23:50:17.867Z,99.90
2017-07-15T23:52:45.428Z,99.90
2017-07-15T23:55:12.959Z,99.90
2017-07-15T23:57:41.275Z,99.90
